Time;durP1;ratioP1;P1;durP2;ratioP2;P2;SDS_P1;SDS_P2;PMS_P1;PMS_P2;Temp;Humidity;BMP_temperature;BMP_pressure;BME280_temperature;BME280_humidity;BME280_pressure;Samples;Min_cycle;Max_cycle;Signal;HPM_P1;HPM_P2
2022/11/05 00:09:29;;;;;;;31.17;14.32;;;;;;;4.67;100.00;99588.31;5174836;27;20561;-46
2022/11/05 00:17:25;;;;;;;30.73;14.35;;;;;;;4.83;100.00;99585.97;5174497;27;20057;-47
2022/11/05 00:19:51;;;;;;;34.25;14.15;;;;;;;4.61;100.00;99573.28;5174866;27;20166;-47
2022/11/05 00:25:15;;;;;;;36.15;15.18;;;;;;;4.68;100.00;99534.81;5174684;27;20061;-46
2022/11/05 00:27:44;;;;;;;28.13;14.13;;;;;;;5.05;100.00;99525.25;5173321;27;20049;-47
2022/11/05 00:30:12;;;;;;;23.48;10.98;;;;;;;4.59;100.00;99567.34;5174660;27;20046;-47
2022/11/05 00:32:39;;;;;;;32.75;13.73;;;;;;;4.88;100.00;99550.50;5174563;27;20050;-46
2022/11/05 00:35:07;;;;;;;34.55;13.43;;;;;;;4.51;100.00;99556.50;5174332;27;20549;-46
2022/11/05 00:37:33;;;;;;;24.52;14.02;;;;;;;4.92;100.00;99556.09;5174373;27;20505;-46
2022/11/05 00:39:59;;;;;;;29.15;15.07;;;;;;;5.02;100.00;99555.78;5174178;27;20072;-47
2022/11/05 00:45:10;;;;;;;28.92;13.35;;;;;;;5.25;100.00;99589.06;5174223;27;20058;-48
2022/11/05 00:50:24;;;;;;;25.02;12.60;;;;;;;5.05;100.00;99600.56;5174195;27;20076;-49
2022/11/05 00:52:58;;;;;;;28.25;12.77;;;;;;;4.85;100.00;99610.09;5174007;27;20060;-47
2022/11/05 00:55:27;;;;;;;26.85;13.50;;;;;;;5.04;100.00;99599.75;5174175;27;20459;-47
2022/11/05 00:57:54;;;;;;;29.48;12.35;;;;;;;5.30;100.00;99601.69;5173980;27;20050;-47
2022/11/05 01:00:21;;;;;;;25.92;12.40;;;;;;;5.29;100.00;99630.00;5174049;27;20094;-46
2022/11/05 01:02:48;;;;;;;21.88;12.40;;;;;;;5.08;100.00;99632.53;5173648;27;20530;-46
2022/11/05 01:05:14;;;;;;;18.73;10.43;;;;;;;4.86;100.00;99619.84;5173839;27;20090;-46
2022/11/05 01:07:40;;;;;;;23.13;10.32;;;;;;;5.29;100.00;99610.97;5173638;27;20425;-47
2022/11/05 01:10:07;;;;;;;18.67;10.32;;;;;;;5.10;100.00;99630.31;5173967;27;20054;-49
2022/11/05 01:12:34;;;;;;;18.42;10.30;;;;;;;5.23;100.00;99639.41;5173976;27;20077;-48
2022/11/05 01:15:01;;;;;;;19.63;9.98;;;;;;;4.87;100.00;99644.00;5173402;27;20042;-46
2022/11/05 01:17:27;;;;;;;16.80;9.10;;;;;;;4.88;100.00;99645.59;5173658;27;20098;-46
2022/11/05 01:19:54;;;;;;;20.60;9.13;;;;;;;5.11;100.00;99640.06;5173834;27;20428;-47
2022/11/05 01:22:21;;;;;;;17.23;8.75;;;;;;;4.86;100.00;99652.44;5173920;27;20075;-47
2022/11/05 01:24:47;;;;;;;16.65;8.80;;;;;;;4.77;100.00;99627.19;5173640;27;20054;-48
2022/11/05 01:27:13;;;;;;;16.30;7.72;;;;;;;4.95;100.00;99610.59;5173855;27;20937;-46
2022/11/05 01:29:40;;;;;;;13.55;8.68;;;;;;;5.30;100.00;99623.44;5173462;27;20505;-48
2022/11/05 01:32:06;;;;;;;15.07;8.48;;;;;;;5.32;100.00;99651.13;5173435;27;20110;-48
2022/11/05 01:34:33;;;;;;;16.15;9.07;;;;;;;5.58;100.00;99668.25;5173668;27;20042;-49
2022/11/05 01:36:59;;;;;;;12.73;7.75;;;;;;;5.22;100.00;99693.00;5172980;27;20054;-46
2022/11/05 01:39:26;;;;;;;13.38;7.82;;;;;;;5.08;100.00;99687.69;5173419;27;20046;-48
2022/11/05 01:41:52;;;;;;;14.07;7.93;;;;;;;5.38;100.00;99693.34;5173236;27;20054;-51
2022/11/05 01:44:52;;;;;;;13.40;7.53;;;;;;;5.65;100.00;99717.53;5173304;27;20094;-50
2022/11/05 01:47:26;;;;;;;11.38;7.07;;;;;;;5.15;100.00;99736.13;5173082;27;20045;-47
2022/11/05 01:49:53;;;;;;;;;;;;;;;5.27;100.00;99738.28;5173762;27;20046;-49
2022/11/05 01:52:21;;;;;;;15.77;7.00;;;;;;;5.38;100.00;99734.13;5172897;27;19955;-46
2022/11/05 01:54:48;;;;;;;13.73;6.72;;;;;;;5.14;100.00;99748.13;5172925;27;20398;-46
2022/11/05 01:57:14;;;;;;;13.18;7.13;;;;;;;5.25;100.00;99724.97;5172856;27;20049;-46
2022/11/05 01:59:44;;;;;;;16.90;7.25;;;;;;;5.28;100.00;99731.72;5172917;27;20050;-46
2022/11/05 02:02:11;;;;;;;15.88;7.60;;;;;;;5.30;100.00;99743.88;5172817;27;20126;-47
2022/11/05 02:04:42;;;;;;;13.68;6.13;;;;;;;5.19;100.00;99756.13;5173047;27;20053;-46
2022/11/05 02:07:10;;;;;;;15.75;8.07;;;;;;;5.51;100.00;99763.13;5173449;27;20102;-48
2022/11/05 02:09:43;;;;;;;12.40;7.03;;;;;;;5.06;100.00;99776.88;5172685;27;20047;-46
2022/11/05 02:12:11;;;;;;;9.40;6.60;;;;;;;5.37;100.00;99755.09;5173090;27;20080;-46
2022/11/05 02:14:38;;;;;;;12.10;6.57;;;;;;;5.34;100.00;99776.69;5172645;27;20053;-46
2022/11/05 02:17:11;;;;;;;17.73;6.90;;;;;;;5.35;100.00;99781.78;5172850;27;20057;-48
2022/11/05 02:20:18;;;;;;;10.73;6.68;;;;;;;5.31;100.00;99793.63;5172574;27;20137;-47
2022/11/05 02:23:16;;;;;;;15.23;6.72;;;;;;;5.28;100.00;99796.97;5172632;27;20053;-47
2022/11/05 02:26:27;;;;;;;8.77;5.47;;;;;;;5.33;100.00;99788.66;5129119;27;20535;-49
2022/11/05 02:29:19;;;;;;;9.13;6.38;;;;;;;4.99;100.00;99813.75;5067548;28;20194;-50
2022/11/05 02:31:52;;;;;;;11.23;6.18;;;;;;;5.16;100.00;99792.91;5172452;27;20078;-50
2022/11/05 02:34:27;;;;;;;11.48;5.97;;;;;;;5.68;100.00;99816.75;5172666;27;20198;-48
2022/11/05 02:37:04;;;;;;;11.60;6.00;;;;;;;4.83;100.00;99837.78;5172365;27;20064;-47
2022/11/05 02:39:38;;;;;;;9.68;5.57;;;;;;;4.98;100.00;99818.41;5172694;27;20189;-48
2022/11/05 02:42:15;;;;;;;11.13;5.65;;;;;;;5.14;100.00;99821.53;5172483;27;20046;-46
2022/11/05 02:44:50;;;;;;;11.20;7.00;;;;;;;5.33;100.00;99834.88;5172320;27;20168;-48
2022/11/05 02:47:26;;;;;;;8.10;5.68;;;;;;;5.07;100.00;99840.19;5172326;27;20475;-48
2022/11/05 02:50:01;;;;;;;13.52;5.90;;;;;;;5.06;100.00;99836.66;5171323;27;20046;-46
2022/11/05 02:52:35;;;;;;;7.07;5.43;;;;;;;5.14;100.00;99832.41;5172372;27;20050;-46
2022/11/05 02:55:09;;;;;;;10.00;5.10;;;;;;;4.80;100.00;99830.25;5171956;27;20100;-47
2022/11/05 02:57:36;;;;;;;7.88;5.20;;;;;;;4.92;100.00;99833.22;5172016;27;20465;-46
2022/11/05 03:00:07;;;;;;;7.20;5.15;;;;;;;5.35;100.00;99838.09;5172082;27;20046;-47
2022/11/05 03:02:34;;;;;;;8.95;5.38;;;;;;;4.93;100.00;99840.25;5171915;27;20057;-47
2022/11/05 03:05:01;;;;;;;10.95;6.20;;;;;;;4.89;100.00;99825.69;5172185;27;20391;-46
2022/11/05 03:07:42;;;;;;;11.50;5.30;;;;;;;4.78;100.00;99827.88;5172100;27;20489;-48
2022/11/05 03:10:30;;;;;;;9.45;5.80;;;;;;;4.88;100.00;99832.25;5172319;27;20046;-49
2022/11/05 03:13:09;;;;;;;8.90;4.38;;;;;;;4.58;100.00;99815.59;5172094;27;20093;-45
2022/11/05 03:15:53;;;;;;;8.95;4.47;;;;;;;4.66;100.00;99805.88;5172026;27;20046;-46
2022/11/05 03:18:27;;;;;;;8.45;5.28;;;;;;;4.53;100.00;99791.25;5171879;27;20085;-45
2022/11/05 03:21:00;;;;;;;8.13;4.35;;;;;;;4.65;100.00;99788.78;5171767;27;20134;-48
2022/11/05 03:23:34;;;;;;;8.02;5.07;;;;;;;4.50;100.00;99783.75;5171949;27;20050;-46
2022/11/05 03:26:06;;;;;;;5.63;3.90;;;;;;;4.30;100.00;99781.50;5171730;27;20054;-49
2022/11/05 03:28:34;;;;;;;6.55;4.25;;;;;;;4.41;100.00;99761.19;5172212;27;20448;-46
2022/11/05 03:31:03;;;;;;;9.20;4.82;;;;;;;4.42;100.00;99760.06;5171570;27;20073;-48
2022/11/05 03:33:33;;;;;;;9.90;4.25;;;;;;;4.43;100.00;99772.50;5171971;27;20052;-47
2022/11/05 03:36:04;;;;;;;6.60;4.28;;;;;;;4.22;100.00;99758.63;5171504;27;20050;-47
2022/11/05 03:38:34;;;;;;;5.38;4.05;;;;;;;4.04;100.00;99755.00;5171770;27;20054;-46
2022/11/05 03:41:05;;;;;;;9.30;5.00;;;;;;;4.34;100.00;99753.47;5171712;27;20078;-46
2022/11/05 03:43:36;;;;;;;8.40;5.10;;;;;;;4.20;100.00;99760.88;5171383;27;20046;-49
2022/11/05 03:46:07;;;;;;;6.70;4.22;;;;;;;4.04;100.00;99763.13;5171725;27;20054;-49
2022/11/05 03:48:38;;;;;;;8.75;5.03;;;;;;;4.35;100.00;99746.13;5171388;27;20089;-46
2022/11/05 03:51:11;;;;;;;8.63;5.55;;;;;;;4.38;100.00;99761.78;5171731;27;20054;-46
2022/11/05 03:53:43;;;;;;;8.70;4.97;;;;;;;4.03;100.00;99777.78;5171301;27;20104;-46
2022/11/05 03:56:15;;;;;;;9.70;5.45;;;;;;;3.99;100.00;99769.47;5171664;27;20137;-49
2022/11/05 03:58:43;;;;;;;8.88;4.90;;;;;;;4.09;100.00;99757.56;5171487;27;20101;-47
2022/11/05 04:01:09;;;;;;;8.27;5.25;;;;;;;3.95;100.00;99767.69;5173004;27;20424;-49
2022/11/05 04:03:36;;;;;;;16.58;5.85;;;;;;;3.96;100.00;99767.34;5175027;27;20503;-50
2022/11/05 04:14:17;;;;;;;13.93;6.22;;;;;;;3.85;100.00;99786.88;5174808;27;20436;-48
2022/11/05 04:24:57;;;;;;;10.38;5.25;;;;;;;3.59;100.00;99771.16;5174424;27;20058;-46
2022/11/05 04:27:23;;;;;;;10.55;5.63;;;;;;;3.80;100.00;99784.28;5174881;27;20497;-47
2022/11/05 04:32:30;;;;;;;10.50;6.07;;;;;;;3.93;100.00;99810.56;5156797;27;20137;-49
2022/11/05 04:34:57;;;;;;;8.98;5.15;;;;;;;3.86;100.00;99824.53;5174336;27;20057;-46
2022/11/05 04:37:23;;;;;;;7.13;5.13;;;;;;;3.84;100.00;99836.84;5174262;27;20053;-46
2022/11/05 04:39:50;;;;;;;8.32;5.38;;;;;;;4.13;100.00;99847.31;5174341;27;20125;-45
2022/11/05 04:42:16;;;;;;;11.93;5.20;;;;;;;4.05;100.00;99870.53;5174350;27;20078;-49
2022/11/05 04:44:42;;;;;;;6.97;4.82;;;;;;;3.96;100.00;99878.59;5174466;27;20046;-49
2022/11/05 04:47:09;;;;;;;7.57;5.18;;;;;;;3.82;100.00;99879.72;5174140;27;20042;-46
2022/11/05 04:49:35;;;;;;;7.07;4.65;;;;;;;3.77;100.00;99883.34;5174056;27;20053;-47
2022/11/05 04:52:02;;;;;;;5.20;3.63;;;;;;;3.42;100.00;99892.94;5173980;27;20054;-48
2022/11/05 04:54:28;;;;;;;8.55;4.45;;;;;;;3.74;100.00;99894.78;5174336;27;20496;-47
2022/11/05 04:56:54;;;;;;;9.25;4.20;;;;;;;3.59;100.00;99895.88;5173718;27;20451;-47
2022/11/05 04:59:21;;;;;;;7.38;4.10;;;;;;;3.66;100.00;99893.56;5174163;27;20549;-49
2022/11/05 05:01:51;;;;;;;7.72;4.30;;;;;;;3.65;100.00;99902.00;5174195;27;20050;-47
2022/11/05 05:04:17;;;;;;;7.30;4.25;;;;;;;3.51;100.00;99913.66;5173675;27;20051;-49
2022/11/05 05:06:43;;;;;;;8.70;3.88;;;;;;;3.51;100.00;99912.84;5174152;27;20050;-46
2022/11/05 05:09:10;;;;;;;5.07;3.55;;;;;;;3.53;100.00;99908.75;5173783;27;20050;-46
2022/11/05 05:11:37;;;;;;;7.32;3.80;;;;;;;3.52;100.00;99909.03;5173637;27;20050;-46
2022/11/05 05:14:03;;;;;;;4.72;3.42;;;;;;;3.49;100.00;99904.19;5173185;27;20089;-46
2022/11/05 05:16:29;;;;;;;7.07;2.95;;;;;;;3.43;100.00;99897.25;5174077;27;20050;-47
2022/11/05 05:18:55;;;;;;;5.07;3.83;;;;;;;3.63;100.00;99872.50;5173740;27;20340;-46
2022/11/05 05:21:37;;;;;;;4.07;3.30;;;;;;;3.73;100.00;99844.34;5173964;27;20485;-48
2022/11/05 05:24:04;;;;;;;5.15;3.35;;;;;;;3.62;100.00;99810.41;5173605;27;20110;-46
2022/11/05 05:26:32;;;;;;;3.75;3.17;;;;;;;3.85;100.00;99803.16;5173418;27;20043;-48
2022/11/05 05:28:59;;;;;;;4.70;3.25;;;;;;;3.75;100.00;99771.63;5173534;27;20446;-49
2022/11/05 05:31:25;;;;;;;4.18;3.05;;;;;;;3.68;100.00;99749.56;5173271;27;20046;-47
2022/11/05 05:33:53;;;;;;;4.82;2.40;;;;;;;3.21;100.00;99729.94;5173367;27;20053;-47
2022/11/05 05:36:19;;;;;;;3.83;3.05;;;;;;;3.63;100.00;99752.38;5173305;27;20057;-47
2022/11/05 05:38:45;;;;;;;7.80;3.55;;;;;;;3.53;100.00;99729.81;5173371;27;20497;-48
2022/11/05 05:41:11;;;;;;;5.68;2.72;;;;;;;3.45;100.00;99760.34;5173050;27;20042;-49
2022/11/05 05:43:38;;;;;;;5.30;2.63;;;;;;;3.70;100.00;99740.03;5173044;27;20085;-46
2022/11/05 05:46:07;;;;;;;2.90;2.28;;;;;;;3.90;100.00;99708.09;5172992;27;20057;-47
2022/11/05 05:48:33;;;;;;;3.58;2.08;;;;;;;3.89;100.00;99646.84;5173353;27;20054;-49
2022/11/05 05:51:01;;;;;;;2.88;1.98;;;;;;;3.69;100.00;99618.28;5172928;27;20145;-47
2022/11/05 05:53:27;;;;;;;2.35;1.60;;;;;;;3.44;100.00;99638.69;5172884;27;20046;-48
2022/11/05 05:55:54;;;;;;;2.65;2.05;;;;;;;3.76;100.00;99652.00;5173054;27;20139;-47
2022/11/05 05:58:20;;;;;;;2.33;1.70;;;;;;;3.65;100.00;99625.44;5172957;27;20050;-50
2022/11/05 06:00:47;;;;;;;2.45;1.67;;;;;;;3.47;100.00;99625.31;5173136;27;20099;-47
2022/11/05 06:03:13;;;;;;;2.78;1.88;;;;;;;3.64;100.00;99624.66;5172704;27;20417;-48
2022/11/05 06:05:39;;;;;;;2.20;1.90;;;;;;;3.49;100.00;99620.38;5172984;27;20054;-46
2022/11/05 06:08:06;;;;;;;2.85;1.90;;;;;;;3.68;100.00;99597.72;5172690;27;20065;-47
2022/11/05 06:10:32;;;;;;;2.05;1.60;;;;;;;3.40;100.00;99584.28;5172837;27;20042;-49
2022/11/05 06:12:58;;;;;;;1.80;1.35;;;;;;;3.51;100.00;99612.75;5172600;27;20067;-47
2022/11/05 06:15:25;;;;;;;1.55;1.30;;;;;;;3.63;100.00;99578.84;5172494;27;20046;-46
2022/11/05 06:17:52;;;;;;;1.40;1.30;;;;;;;3.82;100.00;99579.47;5172527;27;20052;-48
2022/11/05 06:20:18;;;;;;;1.90;1.70;;;;;;;4.31;100.00;99525.28;5172395;27;20056;-47
2022/11/05 06:22:52;;;;;;;2.40;1.70;;;;;;;3.94;100.00;99432.44;5172583;27;20054;-47
2022/11/05 06:25:19;;;;;;;1.95;1.77;;;;;;;4.07;100.00;99458.63;5171248;27;20513;-47
2022/11/05 06:27:45;;;;;;;2.70;1.52;;;;;;;3.92;100.00;99476.13;5172780;27;20421;-47
2022/11/05 06:30:12;;;;;;;2.03;1.75;;;;;;;4.55;100.00;99451.56;5172296;27;20046;-46
2022/11/05 06:32:38;;;;;;;8.20;2.45;;;;;;;4.24;100.00;99404.41;5172672;27;20082;-46
2022/11/05 06:35:06;;;;;;;2.63;1.63;;;;;;;4.14;100.00;99364.00;5172039;27;20042;-47
2022/11/05 06:37:32;;;;;;;3.67;2.22;;;;;;;3.91;100.00;99420.28;5172260;27;20046;-47
2022/11/05 06:39:59;;;;;;;1.48;1.30;;;;;;;3.76;100.00;99483.84;5172645;27;20078;-47
2022/11/05 06:42:25;;;;;;;3.90;1.50;;;;;;;3.84;100.00;99555.56;5172253;27;20042;-48
2022/11/05 06:44:51;;;;;;;8.77;1.52;;;;;;;4.06;100.00;99595.38;5172065;27;20078;-47
2022/11/05 06:47:18;;;;;;;3.38;1.80;;;;;;;3.90;100.00;99567.88;5172264;27;20060;-46
2022/11/05 06:49:44;;;;;;;2.03;1.48;;;;;;;4.00;100.00;99626.50;5172229;27;20508;-47
2022/11/05 06:52:12;;;;;;;7.65;1.58;;;;;;;3.89;100.00;99658.47;5172112;27;20057;-46
2022/11/05 06:54:39;;;;;;;6.25;1.98;;;;;;;4.23;100.00;99679.63;5172235;27;20046;-48
2022/11/05 06:57:08;;;;;;;4.88;1.60;;;;;;;3.74;100.00;99678.63;5171794;27;20054;-48
2022/11/05 06:59:35;;;;;;;1.98;1.67;;;;;;;3.97;100.00;99730.19;5172172;27;20046;-46
2022/11/05 07:02:01;;;;;;;1.55;1.45;;;;;;;3.97;100.00;99749.19;5171928;27;20141;-47
2022/11/05 07:04:27;;;;;;;3.45;1.90;;;;;;;3.97;100.00;99758.13;5172229;27;20050;-47
2022/11/05 07:06:53;;;;;;;2.70;1.63;;;;;;;3.70;100.00;99791.53;5171845;27;20046;-46
2022/11/05 07:09:20;;;;;;;9.35;3.97;;;;;;;3.73;100.00;99822.66;5171866;27;20048;-47
2022/11/05 07:11:47;;;;;;;4.18;2.00;;;;;;;3.89;100.00;99845.66;5171770;27;20133;-47
2022/11/05 07:14:13;;;;;;;7.95;3.10;;;;;;;4.11;100.00;99839.47;5172094;27;20493;-48
2022/11/05 07:16:39;;;;;;;8.32;2.90;;;;;;;3.52;100.00;99828.50;5171965;27;20141;-48
2022/11/05 07:19:05;;;;;;;23.50;4.40;;;;;;;3.64;100.00;99895.78;5171844;27;20050;-50
2022/11/05 07:21:32;;;;;;;4.53;2.25;;;;;;;4.07;100.00;99911.75;5171902;27;20118;-47
2022/11/05 07:23:58;;;;;;;13.63;2.67;;;;;;;3.88;100.00;99911.84;5171704;27;20054;-47
2022/11/05 07:26:26;;;;;;;3.92;2.25;;;;;;;4.42;100.00;99910.16;5171719;27;20401;-47
2022/11/05 07:28:53;;;;;;;6.05;2.40;;;;;;;4.19;100.00;99862.38;5171844;27;20477;-49
2022/11/05 07:31:20;;;;;;;5.13;2.38;;;;;;;4.42;100.00;99863.22;5171857;27;20050;-48
2022/11/05 07:33:46;;;;;;;2.70;1.70;;;;;;;4.57;100.00;99815.91;5171538;27;20054;-47
2022/11/05 07:36:13;;;;;;;5.07;2.30;;;;;;;4.29;100.00;99780.72;5173421;27;20532;-47
2022/11/05 07:38:39;;;;;;;3.42;1.98;;;;;;;4.20;100.00;99851.22;5175244;27;20057;-48
2022/11/05 07:41:06;;;;;;;3.28;2.15;;;;;;;4.38;100.00;99857.59;5175569;27;20049;-47
2022/11/05 07:43:33;;;;;;;2.85;2.10;;;;;;;4.39;100.00;99831.25;5175309;27;20046;-48
2022/11/05 07:45:59;;;;;;;4.00;2.13;;;;;;;4.23;100.00;99815.34;5175112;27;20056;-47
2022/11/05 07:48:25;;;;;;;8.35;2.60;;;;;;;4.09;100.00;99840.88;5175351;27;20068;-51
2022/11/05 07:50:52;;;;;;;13.10;6.00;;;;;;;4.14;100.00;99871.44;5175060;27;20058;-50
2022/11/05 07:53:19;;;;;;;30.17;6.78;;;;;;;3.92;100.00;99884.94;5175088;27;20046;-47
2022/11/05 07:55:46;;;;;;;5.65;2.75;;;;;;;4.18;100.00;99931.34;5174887;27;20046;-47
2022/11/05 07:58:12;;;;;;;9.00;3.88;;;;;;;4.14;100.00;99963.72;5175060;27;20050;-48
2022/11/05 08:00:39;;;;;;;15.75;4.57;;;;;;;4.00;100.00;99939.28;5175079;27;20093;-46
2022/11/05 08:03:08;;;;;;;29.75;4.47;;;;;;;3.85;100.00;99942.28;5174885;27;20513;-49
2022/11/05 08:05:36;;;;;;;8.70;2.78;;;;;;;3.89;100.00;99956.84;5174806;27;20050;-47
2022/11/05 08:08:03;;;;;;;5.10;2.63;;;;;;;4.12;100.00;99938.78;5174584;27;20046;-48
2022/11/05 08:10:29;;;;;;;2.70;1.80;;;;;;;4.10;100.00;99918.47;5174567;27;20088;-48
2022/11/05 08:12:56;;;;;;;3.22;2.30;;;;;;;4.08;100.00;99932.34;5174468;27;20528;-49
2022/11/05 08:15:22;;;;;;;5.15;1.95;;;;;;;3.83;100.00;99930.94;5174581;27;20532;-50
2022/11/05 08:17:50;;;;;;;2.20;1.77;;;;;;;3.96;100.00;99956.47;5174644;27;20507;-47
2022/11/05 08:20:16;;;;;;;4.10;1.83;;;;;;;3.91;100.00;99945.72;5174781;27;20489;-48
2022/11/05 08:22:43;;;;;;;1.95;1.75;;;;;;;3.78;100.00;99948.13;5174376;27;20072;-48
2022/11/05 08:25:10;;;;;;;3.08;1.75;;;;;;;3.69;100.00;99958.03;5174511;27;20068;-46
2022/11/05 08:27:37;;;;;;;6.18;2.63;;;;;;;4.02;100.00;99957.97;5174526;27;20517;-48
2022/11/05 08:30:04;;;;;;;8.30;1.83;;;;;;;3.77;100.00;99962.78;5174384;27;20057;-47
2022/11/05 08:32:30;;;;;;;2.10;1.60;;;;;;;3.90;100.00;99963.09;5174376;27;20145;-54
2022/11/05 08:34:57;;;;;;;10.48;2.03;;;;;;;3.88;100.00;99965.31;5174411;27;20046;-47
2022/11/05 08:37:24;;;;;;;4.07;1.63;;;;;;;4.04;100.00;99966.63;5174277;27;20140;-47
2022/11/05 08:39:50;;;;;;;1.52;1.42;;;;;;;3.64;100.00;99971.72;5174269;27;20571;-46
2022/11/05 08:42:17;;;;;;;6.22;1.88;;;;;;;3.77;100.00;99983.69;5174600;27;20050;-47
2022/11/05 08:44:43;;;;;;;8.13;2.55;;;;;;;3.68;100.00;99980.84;5174265;27;20046;-47
2022/11/05 08:47:09;;;;;;;5.20;2.28;;;;;;;3.37;100.00;99982.50;5173420;27;20186;-48
2022/11/05 08:49:35;;;;;;;3.83;1.83;;;;;;;3.71;100.00;100006.56;5174065;27;20050;-47
2022/11/05 08:52:03;;;;;;;3.97;1.55;;;;;;;3.67;100.00;100019.13;5174068;27;20046;-47
2022/11/05 08:54:29;;;;;;;5.10;1.83;;;;;;;3.51;100.00;100024.81;5173997;27;20042;-46
2022/11/05 08:56:56;;;;;;;5.88;2.60;;;;;;;3.17;100.00;100006.13;5174026;27;20046;-49
2022/11/05 08:59:22;;;;;;;7.70;2.05;;;;;;;3.22;100.00;100014.16;5174269;27;20425;-46
2022/11/05 09:01:49;;;;;;;5.78;2.30;;;;;;;3.64;100.00;100015.09;5174050;27;20501;-47
2022/11/05 09:04:15;;;;;;;3.08;1.63;;;;;;;3.73;100.00;100012.50;5174005;27;20050;-50
2022/11/05 09:06:42;;;;;;;6.22;1.75;;;;;;;3.71;100.00;100015.50;5174010;27;20058;-47
2022/11/05 09:09:09;;;;;;;1.92;1.65;;;;;;;3.39;100.00;100019.03;5174019;27;20047;-47
2022/11/05 09:11:35;;;;;;;5.13;2.08;;;;;;;3.73;100.00;100013.31;5173689;27;20050;-46
2022/11/05 09:14:01;;;;;;;5.30;2.35;;;;;;;3.99;100.00;100007.41;5173839;27;20050;-48
2022/11/05 09:16:27;;;;;;;3.28;2.03;;;;;;;3.64;100.00;100006.97;5173592;27;20150;-49
2022/11/05 09:18:55;;;;;;;2.78;1.75;;;;;;;3.42;100.00;99990.53;5173773;27;20485;-47
2022/11/05 09:21:21;;;;;;;8.48;2.55;;;;;;;3.14;100.00;100016.75;5173502;27;20049;-47
2022/11/05 09:23:48;;;;;;;5.88;2.15;;;;;;;3.24;100.00;100019.28;5173632;27;20132;-48
2022/11/05 09:26:15;;;;;;;4.50;3.25;;;;;;;3.65;100.00;100021.31;5173630;27;20050;-49
2022/11/05 09:28:42;;;;;;;5.57;2.00;;;;;;;3.36;100.00;100021.53;5173521;27;20046;-47
2022/11/05 09:31:10;;;;;;;2.78;2.15;;;;;;;3.49;100.00;100015.34;5173587;27;20042;-48
2022/11/05 09:33:39;;;;;;;5.03;2.17;;;;;;;3.68;100.00;100005.25;5173407;27;20505;-48
2022/11/05 09:36:06;;;;;;;5.05;2.17;;;;;;;3.69;100.00;100000.63;5173405;27;20126;-46
2022/11/05 09:38:34;;;;;;;2.75;1.88;;;;;;;3.78;100.00;99979.88;5173602;27;20421;-49
2022/11/05 09:41:02;;;;;;;3.50;2.33;;;;;;;3.60;100.00;99961.75;5173585;27;20071;-46
2022/11/05 09:43:34;;;;;;;3.08;1.92;;;;;;;3.88;100.00;99940.91;5173219;27;20065;-51
2022/11/05 09:46:07;;;;;;;8.98;2.60;;;;;;;3.84;100.00;99915.50;5173568;27;20097;-49
2022/11/05 09:48:35;;;;;;;5.05;1.98;;;;;;;3.78;100.00;99898.50;5173265;27;20049;-49
2022/11/05 09:51:04;;;;;;;4.28;1.75;;;;;;;3.27;100.00;99904.88;5173380;27;20042;-48
2022/11/05 09:53:31;;;;;;;5.25;2.40;;;;;;;3.23;100.00;99933.66;5172992;27;20053;-48
2022/11/05 09:55:59;;;;;;;6.85;3.20;;;;;;;3.09;100.00;99959.91;5172899;27;20046;-48
2022/11/05 09:58:37;;;;;;;8.88;2.45;;;;;;;3.32;100.00;99969.03;5172611;27;20049;-49
2022/11/05 10:01:05;;;;;;;6.60;2.67;;;;;;;3.03;100.00;99973.56;5173192;27;20429;-46
2022/11/05 10:03:38;;;;;;;4.47;2.88;;;;;;;3.67;100.00;99979.25;5173259;27;20046;-48
2022/11/05 10:06:08;;;;;;;4.00;2.20;;;;;;;3.64;100.00;99949.22;5173236;27;20183;-49
2022/11/05 10:08:39;;;;;;;4.82;2.17;;;;;;;3.53;100.00;99924.19;5173139;27;20054;-47
2022/11/05 10:11:11;;;;;;;5.90;2.40;;;;;;;3.42;100.00;99917.34;5172862;27;20056;-47
2022/11/05 10:13:43;;;;;;;5.13;2.25;;;;;;;3.10;100.00;99900.03;5173153;27;20170;-47
2022/11/05 10:16:20;;;;;;;8.23;2.45;;;;;;;3.01;100.00;99926.19;5173096;27;20091;-48
2022/11/05 10:18:51;;;;;;;5.63;2.45;;;;;;;2.89;100.00;99948.28;5172848;27;20402;-46
2022/11/05 10:21:19;;;;;;;4.30;2.22;;;;;;;2.95;100.00;99943.59;5172791;27;20048;-47
2022/11/05 10:23:47;;;;;;;5.72;2.35;;;;;;;2.96;100.00;99946.00;5173199;27;20090;-45
2022/11/05 10:26:18;;;;;;;4.90;2.35;;;;;;;3.08;100.00;99967.25;5173249;27;20060;-45
2022/11/05 10:28:45;;;;;;;4.32;2.47;;;;;;;3.03;100.00;99957.31;5172674;27;20048;-49
2022/11/05 10:31:15;;;;;;;3.53;2.47;;;;;;;3.14;100.00;99943.59;5172961;27;20085;-46
2022/11/05 10:33:44;;;;;;;6.90;2.15;;;;;;;2.82;100.00;99935.13;5172456;27;20133;-46
2022/11/05 10:36:21;;;;;;;9.95;2.47;;;;;;;3.13;100.00;99952.78;5172619;27;20102;-47
2022/11/05 10:38:47;;;;;;;8.02;2.88;;;;;;;3.20;100.00;99910.69;5172342;27;20107;-48
2022/11/05 10:41:36;;;;;;;6.97;2.83;;;;;;;3.23;100.00;99929.06;5172465;27;20106;-46
2022/11/05 10:44:15;;;;;;;6.85;2.47;;;;;;;3.68;100.00;99882.44;5172531;27;20069;-47
2022/11/05 10:46:49;;;;;;;4.55;2.78;;;;;;;3.21;100.00;99822.88;5172182;27;20050;-50
2022/11/05 10:49:27;;;;;;;4.53;2.90;;;;;;;3.10;100.00;99818.75;5172179;27;20050;-48
2022/11/05 10:51:57;;;;;;;8.15;3.05;;;;;;;3.30;100.00;99831.91;5172018;27;20417;-49
2022/11/05 10:54:32;;;;;;;5.85;2.45;;;;;;;2.99;100.00;99841.69;5171889;27;20054;-47
2022/11/05 10:56:59;;;;;;;5.72;2.90;;;;;;;2.94;100.00;99885.94;5171951;27;20050;-48
2022/11/05 10:59:28;;;;;;;5.88;2.60;;;;;;;2.81;100.00;99889.41;5172009;27;20049;-48
2022/11/05 11:02:00;;;;;;;6.63;2.60;;;;;;;2.75;100.00;99904.09;5171953;27;20056;-48
2022/11/05 11:04:29;;;;;;;5.20;3.00;;;;;;;2.80;100.00;99934.63;5172063;27;20049;-47
2022/11/05 11:06:58;;;;;;;7.82;2.83;;;;;;;2.76;100.00;99927.38;5171967;27;20057;-47
2022/11/05 11:09:26;;;;;;;5.38;2.38;;;;;;;2.96;100.00;99950.63;5171906;27;20046;-51
2022/11/05 11:12:01;;;;;;;3.50;2.45;;;;;;;2.91;100.00;99924.44;5174981;27;20537;-47
2022/11/05 11:14:29;;;;;;;5.70;2.72;;;;;;;2.95;100.00;99902.97;5175594;27;20517;-48
2022/11/05 11:17:16;;;;;;;3.15;1.85;;;;;;;2.81;100.00;99906.44;5175463;27;20042;-48
2022/11/05 11:19:42;;;;;;;8.73;3.45;;;;;;;2.80;100.00;99898.63;5175353;27;20050;-47
2022/11/05 11:22:17;;;;;;;6.43;2.78;;;;;;;2.90;100.00;99941.78;5175342;27;20050;-48
2022/11/05 11:24:45;;;;;;;;;;;;;;;2.88;100.00;99905.28;5175941;27;20046;-49
2022/11/05 11:27:14;;;;;;;5.95;2.83;;;;;;;3.01;100.00;99882.84;5175387;27;19923;-47
2022/11/05 11:29:46;;;;;;;7.28;3.20;;;;;;;2.87;100.00;99888.22;5175545;27;20046;-48
2022/11/05 11:32:15;;;;;;;4.30;2.72;;;;;;;3.03;100.00;99877.91;5175549;27;20050;-47
2022/11/05 11:34:43;;;;;;;5.88;3.08;;;;;;;2.92;100.00;99854.81;5175484;27;20046;-48
2022/11/05 11:37:26;;;;;;;3.88;2.72;;;;;;;2.72;100.00;99897.38;5175133;27;20046;-50
2022/11/05 11:39:55;;;;;;;5.32;2.70;;;;;;;3.18;100.00;99914.78;5175031;27;20050;-48
2022/11/05 11:42:30;;;;;;;8.45;3.58;;;;;;;3.22;100.00;99870.53;5175162;27;20107;-49
2022/11/05 11:45:01;;;;;;;6.28;2.85;;;;;;;3.23;100.00;99822.56;5175168;27;20042;-47
2022/11/05 11:47:29;;;;;;;4.13;2.80;;;;;;;2.98;100.00;99765.06;5174990;27;20054;-48
2022/11/05 11:49:56;;;;;;;5.00;2.35;;;;;;;3.04;100.00;99766.56;5175178;27;20509;-48
2022/11/05 11:52:30;;;;;;;6.20;3.40;;;;;;;3.20;100.00;99737.28;5175229;27;20132;-47
2022/11/05 11:55:17;;;;;;;9.97;2.40;;;;;;;3.15;100.00;99766.38;5175021;27;20050;-48
2022/11/05 11:57:46;;;;;;;4.43;2.10;;;;;;;2.92;100.00;99787.91;5175150;27;20073;-50
2022/11/05 12:00:14;;;;;;;5.40;2.72;;;;;;;3.48;100.00;99835.63;5174948;27;20501;-50
2022/11/05 12:02:55;;;;;;;3.47;2.25;;;;;;;3.33;100.00;99805.31;5175021;27;20054;-50
2022/11/05 12:05:32;;;;;;;5.32;2.15;;;;;;;3.60;100.00;99742.97;5174887;27;20064;-50
2022/11/05 12:08:10;;;;;;;4.75;2.67;;;;;;;3.60;100.00;99687.91;5174769;27;20054;-51
2022/11/05 12:10:54;;;;;;;4.35;2.25;;;;;;;3.42;100.00;99605.66;5174896;27;20192;-49
2022/11/05 12:14:04;;;;;;;4.70;2.45;;;;;;;3.61;100.00;99551.25;5174854;27;20050;-46
2022/11/05 12:16:53;;;;;;;4.82;3.45;;;;;;;3.00;100.00;99611.19;5167674;27;20093;-47
2022/11/05 12:19:31;;;;;;;9.23;4.28;;;;;;;3.00;100.00;99664.53;5174633;27;20042;-48
2022/11/05 12:22:06;;;;;;;7.53;4.15;;;;;;;2.76;100.00;99754.88;5174609;27;20054;-48
2022/11/05 12:25:09;;;;;;;9.00;3.65;;;;;;;2.98;100.00;99780.50;5175098;27;20167;-48